Time,TemperatureF,DewpointF,PressureIn,WindDirection,WindDirectionDegrees,WindSpeedMPH,WindSpeedGustMPH,Humidity,HourlyPrecipIn,Conditions,Clouds,dailyrainin,SoftwareType,DateUTC
2013-06-04 00:01:00,61.7,61.1,29.76,West,270,2.2,-999.0,98,-99.99,,,0.00,Acu-Link.com,2013-06-04 07:01:00,
2013-06-04 00:16:00,61.3,60.7,29.74,WSW,247,0.0,-999.0,98,-99.99,,,0.00,Acu-Link.com,2013-06-04 07:16:00,
2013-06-04 00:46:00,60.8,60.2,29.75,WSW,247,0.0,-999.0,98,-99.99,,,0.00,Acu-Link.com,2013-06-04 07:46:00,
2013-06-04 01:01:00,60.6,60.0,29.75,WNW,292,2.2,-999.0,98,-99.99,,,0.00,Acu-Link.com,2013-06-04 08:01:00,
2013-06-04 01:17:00,60.6,60.0,29.75,West,270,0.0,-999.0,98,-99.99,,,0.00,Acu-Link.com,2013-06-04 08:17:00,
2013-06-04 01:32:00,60.6,60.0,29.74,SE,135,0.0,-999.0,98,-99.99,,,0.00,Acu-Link.com,2013-06-04 08:32:00,
2013-06-04 01:48:00,60.6,60.0,29.74,West,270,0.0,-999.0,98,-99.99,,,0.00,Acu-Link.com,2013-06-04 08:48:00,
2013-06-04 02:03:00,60.6,60.0,29.74,WSW,247,0.0,-999.0,98,-99.99,,,0.00,Acu-Link.com,2013-06-04 09:03:00,
2013-06-04 02:18:00,60.4,59.8,29.75,SW,225,0.0,-999.0,98,-99.99,,,0.00,Acu-Link.com,2013-06-04 09:18:00,
2013-06-04 02:33:00,60.4,59.8,29.74,SSW,202,0.0,-999.0,98,-99.99,,,0.00,Acu-Link.com,2013-06-04 09:33:00,
2013-06-04 02:48:00,60.4,59.8,29.74,SW,225,0.0,-999.0,98,-99.99,,,0.00,Acu-Link.com,2013-06-04 09:48:00,
2013-06-04 03:03:00,60.6,60.0,29.74,North,0,0.0,-999.0,98,-99.99,,,0.00,Acu-Link.com,2013-06-04 10:03:00,
2013-06-04 03:18:00,60.8,60.2,29.74,SW,225,0.0,-999.0,98,-99.99,,,0.00,Acu-Link.com,2013-06-04 10:18:00,
2013-06-04 03:33:00,60.8,60.2,29.74,SW,225,0.0,-999.0,98,-99.99,,,0.00,Acu-Link.com,2013-06-04 10:33:00,
2013-06-04 03:48:00,60.6,60.0,29.75,West,270,0.0,-999.0,98,-99.99,,,0.00,Acu-Link.com,2013-06-04 10:48:00,
2013-06-04 04:04:00,61.0,60.4,29.75,SW,225,0.0,-999.0,98,-99.99,,,0.00,Acu-Link.com,2013-06-04 11:04:00,
2013-06-04 04:19:00,61.2,60.6,29.75,ESE,112,0.0,-999.0,98,-99.99,,,0.00,Acu-Link.com,2013-06-04 11:19:00,
2013-06-04 04:34:00,61.3,60.7,29.74,SW,225,0.0,-999.0,98,-99.99,,,0.00,Acu-Link.com,2013-06-04 11:34:00,
2013-06-04 04:49:00,61.2,60.6,29.75,SSE,157,0.0,-999.0,98,-99.99,,,0.00,Acu-Link.com,2013-06-04 11:49:00,
2013-06-04 05:04:00,61.3,60.7,29.75,NE,45,0.0,-999.0,98,-99.99,,,0.00,Acu-Link.com,2013-06-04 12:04:00,
2013-06-04 05:19:00,61.3,60.7,29.76,ESE,112,0.0,-999.0,98,-99.99,,,0.00,Acu-Link.com,2013-06-04 12:19:00,
2013-06-04 05:34:00,61.5,60.9,29.76,ESE,112,0.0,-999.0,98,-99.99,,,0.00,Acu-Link.com,2013-06-04 12:34:00,
2013-06-04 05:49:00,61.7,61.1,29.76,NE,45,0.0,-999.0,98,-99.99,,,0.00,Acu-Link.com,2013-06-04 12:49:00,
2013-06-04 06:04:00,61.9,61.3,29.76,West,270,0.0,-999.0,98,-99.99,,,0.00,Acu-Link.com,2013-06-04 13:04:00,
2013-06-04 06:20:00,62.2,61.6,29.77,WSW,247,0.0,-999.0,98,-99.99,,,0.00,Acu-Link.com,2013-06-04 13:20:00,
2013-06-04 06:35:00,62.2,61.6,29.77,ESE,112,0.0,-999.0,98,-99.99,,,0.00,Acu-Link.com,2013-06-04 13:35:00,
2013-06-04 06:50:00,62.1,61.5,29.77,West,270,1.1,-999.0,98,-99.99,,,0.00,Acu-Link.com,2013-06-04 13:50:00,
2013-06-04 07:05:00,62.4,61.8,29.78,SW,225,0.0,-999.0,98,-99.99,,,0.00,Acu-Link.com,2013-06-04 14:05:00,
2013-06-04 07:20:00,63.0,62.4,29.78,South,180,0.0,-999.0,98,-99.99,,,0.00,Acu-Link.com,2013-06-04 14:20:00,
2013-06-04 07:35:00,63.1,62.5,29.78,WSW,247,3.2,-999.0,98,-99.99,,,0.00,Acu-Link.com,2013-06-04 14:35:00,
2013-06-04 07:50:00,63.5,62.9,29.78,SSW,202,0.0,-999.0,98,-99.99,,,0.00,Acu-Link.com,2013-06-04 14:50:00,
2013-06-04 08:06:00,64.8,64.2,29.79,SSW,202,0.0,-999.0,98,-99.99,,,0.00,Acu-Link.com,2013-06-04 15:06:00,
2013-06-04 08:21:00,65.5,64.9,29.79,SW,225,0.0,-999.0,98,-99.99,,,0.00,Acu-Link.com,2013-06-04 15:21:00,
2013-06-04 08:36:00,66.2,65.6,29.79,WNW,292,1.7,-999.0,98,-99.99,,,0.00,Acu-Link.com,2013-06-04 15:36:00,
2013-06-04 08:51:00,67.5,66.9,29.79,West,270,1.7,-999.0,98,-99.99,,,0.00,Acu-Link.com,2013-06-04 15:51:00,
2013-06-04 09:06:00,68.5,67.9,29.79,SSE,157,1.1,-999.0,98,-99.99,,,0.00,Acu-Link.com,2013-06-04 16:06:00,
2013-06-04 09:21:00,69.3,68.7,29.80,ENE,67,2.2,-999.0,98,-99.99,,,0.00,Acu-Link.com,2013-06-04 16:21:00,
2013-06-04 09:51:00,72.0,71.4,29.79,SSE,157,2.2,-999.0,98,-99.99,,,0.00,Acu-Link.com,2013-06-04 16:51:00,
2013-06-04 10:06:00,75.2,32.6,29.79,South,180,0.0,-999.0,21,-99.99,,,0.00,Acu-Link.com,2013-06-04 17:06:00,
2013-06-04 10:22:00,77.0,76.4,29.80,East,90,5.8,-999.0,98,-99.99,,,0.00,Acu-Link.com,2013-06-04 17:22:00,
2013-06-04 10:37:00,82.9,58.7,29.80,NW,315,3.2,-999.0,44,-99.99,,,0.00,Acu-Link.com,2013-06-04 17:37:00,
2013-06-04 10:52:00,83.3,77.9,29.80,NNE,22,2.7,-999.0,84,-99.99,,,0.00,Acu-Link.com,2013-06-04 17:52:00,
2013-06-04 11:07:00,84.9,84.3,29.80,SSW,202,2.7,-999.0,98,-99.99,,,0.00,Acu-Link.com,2013-06-04 18:07:00,
2013-06-04 11:22:00,84.6,84.0,29.80,West,270,2.7,-999.0,98,-99.99,,,0.00,Acu-Link.com,2013-06-04 18:22:00,
2013-06-04 11:37:00,82.6,82.0,29.80,SW,225,2.7,-999.0,98,-99.99,,,0.00,Acu-Link.com,2013-06-04 18:37:00,
2013-06-04 11:52:00,82.8,-27.2,29.79,WSW,247,3.7,-999.0,1,-99.99,,,0.00,Acu-Link.com,2013-06-04 18:52:00,
2013-06-04 12:07:00,82.6,-27.3,29.79,West,270,4.7,-999.0,1,-99.99,,,0.00,Acu-Link.com,2013-06-04 19:07:00,
2013-06-04 12:22:00,79.5,-29.1,29.79,SW,225,5.3,-999.0,1,-99.99,,,0.00,Acu-Link.com,2013-06-04 19:22:00,
2013-06-04 12:38:00,79.9,-28.9,29.79,NNE,22,7.8,-999.0,1,-99.99,,,0.00,Acu-Link.com,2013-06-04 19:38:00,
2013-06-04 12:53:00,78.8,-29.6,29.79,SSW,202,4.2,-999.0,1,-99.99,,,0.00,Acu-Link.com,2013-06-04 19:53:00,
2013-06-04 13:08:00,78.6,-29.7,29.79,East,90,6.8,-999.0,1,-99.99,,,0.00,Acu-Link.com,2013-06-04 20:08:00,
2013-06-04 13:23:00,79.3,-29.3,29.78,North,0,3.2,-999.0,1,-99.99,,,0.00,Acu-Link.com,2013-06-04 20:23:00,
2013-06-04 13:38:00,78.6,-29.7,29.79,NW,315,3.2,-999.0,1,-99.99,,,0.00,Acu-Link.com,2013-06-04 20:38:00,
2013-06-04 13:53:00,79.2,-29.3,29.79,South,180,7.3,-999.0,1,-99.99,,,0.00,Acu-Link.com,2013-06-04 20:53:00,
2013-06-04 14:09:00,81.3,-28.1,29.78,West,270,3.7,-999.0,1,-99.99,,,0.00,Acu-Link.com,2013-06-04 21:09:00,
2013-06-04 14:24:00,79.7,-29.0,29.79,SW,225,4.7,-999.0,1,-99.99,,,0.00,Acu-Link.com,2013-06-04 21:24:00,
2013-06-04 14:39:00,78.6,-29.7,29.79,SW,225,7.3,-999.0,1,-99.99,,,0.00,Acu-Link.com,2013-06-04 21:39:00,
2013-06-04 14:54:00,78.3,-29.9,29.78,SSW,202,5.8,-999.0,1,-99.99,,,0.00,Acu-Link.com,2013-06-04 21:54:00,
2013-06-04 15:09:00,79.2,-29.3,29.79,WSW,247,5.8,-999.0,1,-99.99,,,0.00,Acu-Link.com,2013-06-04 22:09:00,
2013-06-04 15:24:00,78.4,58.2,29.78,ESE,112,6.3,-999.0,50,-99.99,,,0.00,Acu-Link.com,2013-06-04 22:24:00,
2013-06-04 15:39:00,78.1,28.3,29.78,SW,225,6.3,-999.0,16,-99.99,,,0.00,Acu-Link.com,2013-06-04 22:39:00,
2013-06-04 15:54:00,77.7,-30.2,29.77,NW,315,2.2,-999.0,1,-99.99,,,0.00,Acu-Link.com,2013-06-04 22:54:00,
2013-06-04 16:09:00,78.3,-29.9,29.78,South,180,6.8,-999.0,1,-99.99,,,0.00,Acu-Link.com,2013-06-04 23:09:00,
2013-06-04 16:25:00,78.3,-29.9,29.76,South,180,7.3,-999.0,1,-99.99,,,0.00,Acu-Link.com,2013-06-04 23:25:00,
2013-06-04 16:40:00,76.8,-30.7,29.77,SSW,202,7.3,-999.0,1,-99.99,,,0.00,Acu-Link.com,2013-06-04 23:40:00,
2013-06-04 16:55:00,77.9,-30.1,29.76,WNW,292,5.8,-999.0,1,-99.99,,,0.00,Acu-Link.com,2013-06-04 23:55:00,
2013-06-04 17:10:00,76.6,-30.9,29.77,SSE,157,6.8,-999.0,1,-99.99,,,0.00,Acu-Link.com,2013-06-05 00:10:00,
2013-06-04 17:25:00,75.7,-31.4,29.77,WSW,247,4.7,-999.0,1,-99.99,,,0.00,Acu-Link.com,2013-06-05 00:25:00,
2013-06-04 17:40:00,74.3,-32.2,29.76,SE,135,6.8,-999.0,1,-99.99,,,0.00,Acu-Link.com,2013-06-05 00:40:00,
2013-06-04 17:55:00,73.4,-32.8,29.76,WSW,247,4.7,-999.0,1,-99.99,,,0.00,Acu-Link.com,2013-06-05 00:55:00,
2013-06-04 18:10:00,72.3,-33.4,29.77,SE,135,7.8,-999.0,1,-99.99,,,0.00,Acu-Link.com,2013-06-05 01:10:00,
2013-06-04 18:25:00,71.1,17.8,29.77,SW,225,8.3,-999.0,13,-99.99,,,0.00,Acu-Link.com,2013-06-05 01:25:00,
2013-06-04 18:41:00,69.4,21.3,29.77,SSW,202,5.8,-999.0,16,-99.99,,,0.00,Acu-Link.com,2013-06-05 01:41:00,
2013-06-04 18:56:00,67.5,66.9,29.78,West,270,8.3,-999.0,98,-99.99,,,0.00,Acu-Link.com,2013-06-05 01:56:00,
2013-06-04 19:26:00,64.4,63.8,29.80,West,270,2.7,-999.0,98,-99.99,,,0.00,Acu-Link.com,2013-06-05 02:26:00,
2013-06-04 19:41:00,62.6,62.0,29.80,SSE,157,3.2,-999.0,98,-99.99,,,0.00,Acu-Link.com,2013-06-05 02:41:00,
2013-06-04 19:56:00,61.0,60.4,29.80,SW,225,3.7,-999.0,98,-99.99,,,0.00,Acu-Link.com,2013-06-05 02:56:00,
2013-06-04 20:11:00,60.3,59.7,29.81,SW,225,1.7,-999.0,98,-99.99,,,0.00,Acu-Link.com,2013-06-05 03:11:00,
2013-06-04 20:26:00,59.2,58.6,29.81,NNW,337,1.7,-999.0,98,-99.99,,,0.00,Acu-Link.com,2013-06-05 03:26:00,
2013-06-04 20:41:00,58.8,58.2,29.81,West,270,4.7,-999.0,98,-99.99,,,0.00,Acu-Link.com,2013-06-05 03:41:00,
2013-06-04 20:57:00,58.3,57.7,29.82,SSW,202,2.2,-999.0,98,-99.99,,,0.00,Acu-Link.com,2013-06-05 03:57:00,
2013-06-04 21:12:00,58.1,47.6,29.82,West,270,3.2,-999.0,68,-99.99,,,0.00,Acu-Link.com,2013-06-05 04:12:00,
2013-06-04 21:27:00,57.7,57.1,29.81,SSW,202,0.0,-999.0,98,-99.99,,,0.00,Acu-Link.com,2013-06-05 04:27:00,
2013-06-04 21:42:00,57.6,57.0,29.82,SW,225,0.0,-999.0,98,-99.99,,,0.00,Acu-Link.com,2013-06-05 04:42:00,
2013-06-04 21:57:00,57.2,56.6,29.82,West,270,0.0,-999.0,98,-99.99,,,0.00,Acu-Link.com,2013-06-05 04:57:00,
2013-06-04 22:12:00,57.2,55.8,29.83,SW,225,2.7,-999.0,95,-99.99,,,0.00,Acu-Link.com,2013-06-05 05:12:00,
2013-06-04 22:27:00,56.5,55.9,29.83,West,270,2.2,-999.0,98,-99.99,,,0.00,Acu-Link.com,2013-06-05 05:27:00,
2013-06-04 22:42:00,56.5,55.9,29.83,SSW,202,1.1,-999.0,98,-99.99,,,0.00,Acu-Link.com,2013-06-05 05:42:00,
2013-06-04 22:57:00,56.3,55.7,29.83,SW,225,0.0,-999.0,98,-99.99,,,0.00,Acu-Link.com,2013-06-05 05:57:00,
2013-06-04 23:13:00,56.3,55.7,29.83,South,180,0.0,-999.0,98,-99.99,,,0.00,Acu-Link.com,2013-06-05 06:13:00,
2013-06-04 23:28:00,56.3,55.7,29.83,SSE,157,0.0,-999.0,98,-99.99,,,0.00,Acu-Link.com,2013-06-05 06:28:00,
2013-06-04 23:43:00,56.3,55.7,29.82,West,270,0.0,-999.0,98,-99.99,,,0.00,Acu-Link.com,2013-06-05 06:43:00,
2013-06-04 23:58:00,55.8,55.2,29.83,ENE,67,0.0,-999.0,98,-99.99,,,0.00,Acu-Link.com,2013-06-05 06:58:00,